AOJ74J LOWW-LDSP
Flight info
| Callsign | AOJ74J |
|---|---|
| Flight time | 0h 51m |
| Altitude | 39000 |
| Route | STEIN DCT NOHAT DCT NEKIN DCT NIVES DCT NUPSO |
| Aircraft | C750/M-SBDE3FGHRWXY/S |
Departure
| Time | 2026-05-04 19:41 |
|---|---|
| Airport | Vienna International Airport (LOWW) |
Arrival
| Time | 2026-05-04 20:33 |
|---|---|
| Airport | Split Saint Jerome Airport (LDSP) |
| Time | Latitude | Longitude | Altitude | Speed | Heading |
|---|---|---|---|---|---|
| 2026-05-04 19:31 | 48.12722 | 16.53606 | 616 ft | 0 kts | 298° |
| 2026-05-04 19:31 | 48.12716 | 16.53616 | 613 ft | 0 kts | 296° |
| 2026-05-04 19:32 | 48.12716 | 16.53615 | 613 ft | 0 kts | 296° |
| 2026-05-04 19:36 | 48.12723 | 16.53587 | 614 ft | 2 kts | 273° |
| 2026-05-04 19:36 | 48.12682 | 16.53548 | 614 ft | 13 kts | 166° |
| 2026-05-04 19:36 | 48.12626 | 16.53556 | 606 ft | 8 kts | 206° |
| 2026-05-04 19:37 | 48.12562 | 16.53512 | 606 ft | 10 kts | 207° |
| 2026-05-04 19:37 | 48.12498 | 16.53504 | 606 ft | 12 kts | 187° |
| 2026-05-04 19:37 | 48.12429 | 16.53462 | 606 ft | 10 kts | 204° |
| 2026-05-04 19:37 | 48.12385 | 16.53431 | 606 ft | 0 kts | 207° |
| 2026-05-04 19:38 | 48.12374 | 16.53422 | 615 ft | 3 kts | 209° |
| 2026-05-04 19:38 | 48.12355 | 16.53408 | 613 ft | 8 kts | 205° |
| 2026-05-04 19:39 | 48.12278 | 16.53373 | 614 ft | 8 kts | 156° |
| 2026-05-04 19:39 | 48.12251 | 16.53432 | 606 ft | 2 kts | 117° |
| 2026-05-04 19:41 | 48.12250 | 16.53435 | 606 ft | 2 kts | 117° |
| 2026-05-04 19:41 | 48.12189 | 16.53625 | 613 ft | 62 kts | 116° |
| 2026-05-04 19:41 | 48.11849 | 16.54667 | 668 ft | 139 kts | 118° |
| 2026-05-04 19:41 | 48.11431 | 16.55953 | 1280 ft | 130 kts | 121° |
| 2026-05-04 19:42 | 48.11037 | 16.57168 | 1886 ft | 135 kts | 126° |
| 2026-05-04 19:42 | 48.10604 | 16.58468 | 2568 ft | 143 kts | 127° |
| 2026-05-04 19:42 | 48.10159 | 16.59824 | 3286 ft | 148 kts | 126° |
| 2026-05-04 19:42 | 48.09684 | 16.61203 | 3987 ft | 152 kts | 127° |
| 2026-05-04 19:43 | 48.09163 | 16.62735 | 4408 ft | 180 kts | 123° |
| 2026-05-04 19:43 | 48.08576 | 16.64554 | 4764 ft | 208 kts | 122° |
| 2026-05-04 19:43 | 48.07902 | 16.66622 | 5116 ft | 231 kts | 121° |
| 2026-05-04 19:43 | 48.07005 | 16.68571 | 5855 ft | 226 kts | 137° |
| 2026-05-04 19:44 | 48.05759 | 16.69972 | 6568 ft | 225 kts | 154° |
| 2026-05-04 19:44 | 48.04284 | 16.70721 | 7273 ft | 224 kts | 172° |
| 2026-05-04 19:44 | 48.02741 | 16.70758 | 8089 ft | 222 kts | 188° |
| 2026-05-04 19:44 | 48.01209 | 16.70370 | 8888 ft | 224 kts | 190° |
| 2026-05-04 19:45 | 47.99658 | 16.70008 | 9645 ft | 227 kts | 190° |
| 2026-05-04 19:45 | 47.98096 | 16.69640 | 10311 ft | 228 kts | 190° |
| 2026-05-04 19:45 | 47.96515 | 16.69256 | 10907 ft | 231 kts | 191° |
| 2026-05-04 19:45 | 47.94942 | 16.68874 | 11531 ft | 233 kts | 191° |
| 2026-05-04 19:46 | 47.93331 | 16.68485 | 12150 ft | 236 kts | 191° |
| 2026-05-04 19:46 | 47.91706 | 16.68094 | 12772 ft | 238 kts | 190° |
| 2026-05-04 19:46 | 47.90063 | 16.67698 | 13390 ft | 240 kts | 191° |
| 2026-05-04 19:46 | 47.88408 | 16.67299 | 13976 ft | 242 kts | 191° |
| 2026-05-04 19:47 | 47.86735 | 16.66896 | 14505 ft | 244 kts | 191° |
| 2026-05-04 19:47 | 47.85047 | 16.66490 | 15027 ft | 247 kts | 191° |
| 2026-05-04 19:47 | 47.83344 | 16.66081 | 15582 ft | 248 kts | 191° |
| 2026-05-04 19:47 | 47.81634 | 16.65670 | 16127 ft | 251 kts | 191° |
| 2026-05-04 19:48 | 47.79901 | 16.65254 | 16665 ft | 253 kts | 191° |
| 2026-05-04 19:48 | 47.78149 | 16.64834 | 17196 ft | 257 kts | 190° |
| 2026-05-04 19:48 | 47.76378 | 16.64409 | 17776 ft | 258 kts | 191° |
| 2026-05-04 19:48 | 47.74603 | 16.63984 | 18362 ft | 259 kts | 191° |
| 2026-05-04 19:49 | 47.72802 | 16.63605 | 18810 ft | 264 kts | 186° |
| 2026-05-04 19:49 | 47.70954 | 16.63406 | 19276 ft | 268 kts | 186° |
| 2026-05-04 19:49 | 47.69106 | 16.63167 | 19877 ft | 266 kts | 187° |
| 2026-05-04 19:49 | 47.67245 | 16.62926 | 20350 ft | 271 kts | 187° |
| 2026-05-04 19:50 | 47.65347 | 16.62697 | 20791 ft | 277 kts | 187° |
| 2026-05-04 19:50 | 47.63419 | 16.62468 | 21253 ft | 281 kts | 187° |
| 2026-05-04 19:50 | 47.61458 | 16.62232 | 21766 ft | 282 kts | 187° |
| 2026-05-04 19:50 | 47.59491 | 16.61991 | 22224 ft | 287 kts | 186° |
| 2026-05-04 19:51 | 47.57482 | 16.61745 | 22422 ft | 305 kts | 186° |
| 2026-05-04 19:51 | 47.55272 | 16.61475 | 22511 ft | 332 kts | 186° |
| 2026-05-04 19:51 | 47.52880 | 16.61187 | 22568 ft | 358 kts | 187° |
| 2026-05-04 19:51 | 47.50317 | 16.60878 | 22624 ft | 381 kts | 187° |
| 2026-05-04 19:52 | 47.47601 | 16.60551 | 22665 ft | 402 kts | 187° |
| 2026-05-04 19:52 | 47.44753 | 16.60208 | 22931 ft | 415 kts | 186° |
| 2026-05-04 19:52 | 47.41853 | 16.59978 | 23491 ft | 421 kts | 181° |
| 2026-05-04 19:52 | 47.38904 | 16.60137 | 24002 ft | 426 kts | 179° |
| 2026-05-04 19:53 | 47.35936 | 16.60296 | 24553 ft | 429 kts | 179° |
| 2026-05-04 19:53 | 47.32941 | 16.60405 | 25069 ft | 432 kts | 180° |
| 2026-05-04 19:53 | 47.29923 | 16.60516 | 25593 ft | 436 kts | 180° |
| 2026-05-04 19:53 | 47.26881 | 16.60658 | 26115 ft | 439 kts | 180° |
| 2026-05-04 19:54 | 47.23813 | 16.60806 | 26635 ft | 443 kts | 179° |
| 2026-05-04 19:54 | 47.20725 | 16.60936 | 27167 ft | 446 kts | 179° |
| 2026-05-04 19:54 | 47.17617 | 16.61061 | 27740 ft | 448 kts | 179° |
| 2026-05-04 19:54 | 47.14488 | 16.61198 | 28252 ft | 452 kts | 179° |
| 2026-05-04 19:55 | 47.11334 | 16.61340 | 28774 ft | 455 kts | 179° |
| 2026-05-04 19:55 | 47.08198 | 16.61476 | 29281 ft | 459 kts | 179° |
| 2026-05-04 19:55 | 47.04994 | 16.61611 | 29780 ft | 462 kts | 179° |
| 2026-05-04 19:55 | 47.01767 | 16.61750 | 30241 ft | 466 kts | 179° |
| 2026-05-04 19:56 | 46.98507 | 16.61893 | 30599 ft | 471 kts | 179° |
| 2026-05-04 19:56 | 46.95227 | 16.62034 | 31059 ft | 472 kts | 179° |
| 2026-05-04 19:56 | 46.91972 | 16.62174 | 31739 ft | 456 kts | 179° |
| 2026-05-04 19:56 | 46.88810 | 16.62313 | 31970 ft | 459 kts | 179° |
| 2026-05-04 19:57 | 46.85626 | 16.62448 | 31970 ft | 458 kts | 179° |
| 2026-05-04 19:57 | 46.79252 | 16.62983 | 31972 ft | 460 kts | 173° |
| 2026-05-04 19:58 | 46.72899 | 16.64230 | 31985 ft | 461 kts | 174° |
| 2026-05-04 19:58 | 46.66540 | 16.65421 | 31989 ft | 461 kts | 173° |
| 2026-05-04 19:59 | 46.60182 | 16.66649 | 31994 ft | 461 kts | 173° |
| 2026-05-04 19:59 | 46.53759 | 16.67857 | 32367 ft | 469 kts | 173° |
| 2026-05-04 19:59 | 46.50531 | 16.68475 | 33068 ft | 467 kts | 173° |
| 2026-05-04 20:00 | 46.47319 | 16.69088 | 33718 ft | 465 kts | 174° |
| 2026-05-04 20:00 | 46.44100 | 16.69487 | 34256 ft | 464 kts | 181° |
| 2026-05-04 20:00 | 46.40895 | 16.69131 | 34782 ft | 462 kts | 190° |
| 2026-05-04 20:00 | 46.37782 | 16.68048 | 35289 ft | 459 kts | 200° |
| 2026-05-04 20:01 | 46.34882 | 16.66323 | 35840 ft | 456 kts | 207° |
| 2026-05-04 20:01 | 46.32020 | 16.64344 | 36388 ft | 455 kts | 207° |
| 2026-05-04 20:01 | 46.29166 | 16.62391 | 36951 ft | 453 kts | 207° |
| 2026-05-04 20:01 | 46.26320 | 16.60451 | 37511 ft | 452 kts | 207° |
| 2026-05-04 20:02 | 46.23482 | 16.58508 | 38071 ft | 451 kts | 207° |
| 2026-05-04 20:02 | 46.20655 | 16.56570 | 38633 ft | 449 kts | 207° |
| 2026-05-04 20:02 | 46.17829 | 16.54641 | 39005 ft | 451 kts | 207° |
| 2026-05-04 20:03 | 46.12030 | 16.50688 | 39006 ft | 471 kts | 207° |
| 2026-05-04 20:03 | 46.05980 | 16.46576 | 39026 ft | 489 kts | 207° |
| 2026-05-04 20:04 | 45.99719 | 16.42331 | 39026 ft | 505 kts | 207° |
| 2026-05-04 20:04 | 45.93339 | 16.38022 | 39036 ft | 508 kts | 207° |
| 2026-05-04 20:05 | 45.86942 | 16.33702 | 39040 ft | 508 kts | 207° |
| 2026-05-04 20:05 | 45.80539 | 16.29395 | 39045 ft | 509 kts | 207° |
| 2026-05-04 20:06 | 45.74127 | 16.25090 | 39047 ft | 509 kts | 207° |
| 2026-05-04 20:06 | 45.67716 | 16.20798 | 39024 ft | 509 kts | 207° |
| 2026-05-04 20:07 | 45.61347 | 16.16543 | 39029 ft | 509 kts | 207° |
| 2026-05-04 20:07 | 45.54932 | 16.12271 | 39034 ft | 509 kts | 207° |
| 2026-05-04 20:08 | 45.48515 | 16.08006 | 39039 ft | 509 kts | 207° |
| 2026-05-04 20:08 | 45.42098 | 16.03753 | 39034 ft | 509 kts | 207° |
| 2026-05-04 20:09 | 45.35681 | 15.99510 | 39032 ft | 508 kts | 207° |
| 2026-05-04 20:09 | 45.29346 | 15.95335 | 38318 ft | 488 kts | 207° |
| 2026-05-04 20:09 | 45.26326 | 15.93348 | 37687 ft | 470 kts | 207° |
| 2026-05-04 20:10 | 45.23340 | 15.91662 | 37044 ft | 456 kts | 200° |
| 2026-05-04 20:10 | 45.20262 | 15.90707 | 36456 ft | 452 kts | 190° |
| 2026-05-04 20:10 | 45.17121 | 15.90439 | 35875 ft | 453 kts | 184° |
| 2026-05-04 20:10 | 45.13956 | 15.90334 | 35281 ft | 457 kts | 184° |
| 2026-05-04 20:11 | 45.10777 | 15.90177 | 34682 ft | 457 kts | 185° |
| 2026-05-04 20:11 | 45.07644 | 15.89982 | 34093 ft | 457 kts | 185° |
| 2026-05-04 20:11 | 45.04459 | 15.89808 | 33467 ft | 459 kts | 184° |
| 2026-05-04 20:11 | 45.01261 | 15.89662 | 32861 ft | 462 kts | 184° |
| 2026-05-04 20:12 | 44.98041 | 15.89508 | 32251 ft | 464 kts | 184° |
| 2026-05-04 20:12 | 44.94807 | 15.89332 | 31648 ft | 466 kts | 184° |
| 2026-05-04 20:12 | 44.91557 | 15.89158 | 31025 ft | 469 kts | 184° |
| 2026-05-04 20:12 | 44.88283 | 15.88995 | 30411 ft | 471 kts | 184° |
| 2026-05-04 20:13 | 44.85027 | 15.88836 | 29753 ft | 465 kts | 184° |
| 2026-05-04 20:13 | 44.81816 | 15.88671 | 29143 ft | 460 kts | 184° |
| 2026-05-04 20:13 | 44.78637 | 15.88505 | 28552 ft | 455 kts | 183° |
| 2026-05-04 20:13 | 44.75483 | 15.88344 | 27954 ft | 452 kts | 184° |
| 2026-05-04 20:14 | 44.72361 | 15.88188 | 27372 ft | 447 kts | 184° |
| 2026-05-04 20:14 | 44.69264 | 15.88031 | 26789 ft | 443 kts | 184° |
| 2026-05-04 20:14 | 44.66194 | 15.87874 | 26209 ft | 439 kts | 184° |
| 2026-05-04 20:14 | 44.63154 | 15.87720 | 25638 ft | 434 kts | 183° |
| 2026-05-04 20:15 | 44.60147 | 15.87569 | 25069 ft | 431 kts | 183° |
| 2026-05-04 20:15 | 44.57164 | 15.87418 | 24511 ft | 427 kts | 183° |
| 2026-05-04 20:15 | 44.54204 | 15.87268 | 23950 ft | 424 kts | 183° |
| 2026-05-04 20:15 | 44.51268 | 15.87120 | 23350 ft | 420 kts | 183° |
| 2026-05-04 20:16 | 44.48368 | 15.86974 | 22800 ft | 415 kts | 183° |
| 2026-05-04 20:16 | 44.45498 | 15.86829 | 22255 ft | 411 kts | 182° |
| 2026-05-04 20:16 | 44.42658 | 15.86687 | 21718 ft | 406 kts | 182° |
| 2026-05-04 20:16 | 44.39853 | 15.86546 | 21186 ft | 401 kts | 182° |
| 2026-05-04 20:17 | 44.37070 | 15.86406 | 20659 ft | 397 kts | 182° |
| 2026-05-04 20:17 | 44.34325 | 15.86268 | 20138 ft | 392 kts | 182° |
| 2026-05-04 20:17 | 44.31598 | 15.86133 | 19620 ft | 392 kts | 182° |
| 2026-05-04 20:17 | 44.28886 | 15.85997 | 19112 ft | 391 kts | 182° |
| 2026-05-04 20:18 | 44.26217 | 15.85863 | 18604 ft | 386 kts | 182° |
| 2026-05-04 20:18 | 44.23552 | 15.85729 | 18062 ft | 381 kts | 182° |
| 2026-05-04 20:18 | 44.20910 | 15.85598 | 17554 ft | 378 kts | 182° |
| 2026-05-04 20:18 | 44.18292 | 15.85468 | 17059 ft | 375 kts | 182° |
| 2026-05-04 20:19 | 44.15696 | 15.85341 | 16554 ft | 372 kts | 182° |
| 2026-05-04 20:19 | 44.13141 | 15.85690 | 16030 ft | 369 kts | 166° |
| 2026-05-04 20:19 | 44.10784 | 15.87077 | 15585 ft | 368 kts | 154° |
| 2026-05-04 20:19 | 44.08520 | 15.88719 | 15105 ft | 366 kts | 153° |
| 2026-05-04 20:20 | 44.06279 | 15.90364 | 14632 ft | 363 kts | 154° |
| 2026-05-04 20:20 | 44.04040 | 15.91960 | 14150 ft | 360 kts | 154° |
| 2026-05-04 20:20 | 44.01815 | 15.93534 | 13647 ft | 358 kts | 154° |
| 2026-05-04 20:20 | 43.99610 | 15.95113 | 13169 ft | 355 kts | 154° |
| 2026-05-04 20:21 | 43.97421 | 15.96684 | 12703 ft | 353 kts | 154° |
| 2026-05-04 20:21 | 43.95242 | 15.98237 | 12239 ft | 351 kts | 154° |
| 2026-05-04 20:21 | 43.90926 | 16.01310 | 11313 ft | 342 kts | 154° |
| 2026-05-04 20:22 | 43.88880 | 16.02765 | 10882 ft | 319 kts | 154° |
| 2026-05-04 20:22 | 43.86879 | 16.03799 | 10431 ft | 299 kts | 170° |
| 2026-05-04 20:22 | 43.84860 | 16.03788 | 10062 ft | 286 kts | 188° |
| 2026-05-04 20:22 | 43.82922 | 16.03283 | 9707 ft | 282 kts | 191° |
| 2026-05-04 20:23 | 43.81000 | 16.02775 | 9336 ft | 280 kts | 191° |
| 2026-05-04 20:23 | 43.79116 | 16.02290 | 8973 ft | 278 kts | 191° |
| 2026-05-04 20:23 | 43.77218 | 16.01799 | 8604 ft | 277 kts | 191° |
| 2026-05-04 20:23 | 43.75333 | 16.01304 | 8239 ft | 275 kts | 191° |
| 2026-05-04 20:24 | 43.73455 | 16.00811 | 7874 ft | 274 kts | 191° |
| 2026-05-04 20:24 | 43.71582 | 16.00322 | 7411 ft | 273 kts | 191° |
| 2026-05-04 20:24 | 43.69727 | 15.99839 | 7029 ft | 270 kts | 191° |
| 2026-05-04 20:24 | 43.67887 | 15.99359 | 6674 ft | 268 kts | 191° |
| 2026-05-04 20:25 | 43.66056 | 15.98882 | 6312 ft | 267 kts | 191° |
| 2026-05-04 20:25 | 43.64233 | 15.98407 | 5947 ft | 267 kts | 191° |
| 2026-05-04 20:25 | 43.62413 | 15.97933 | 5595 ft | 266 kts | 191° |
| 2026-05-04 20:25 | 43.60596 | 15.97459 | 5248 ft | 265 kts | 191° |
| 2026-05-04 20:26 | 43.58785 | 15.96989 | 4908 ft | 264 kts | 191° |
| 2026-05-04 20:26 | 43.56982 | 15.96520 | 4551 ft | 264 kts | 191° |
| 2026-05-04 20:26 | 43.55180 | 15.96052 | 4201 ft | 263 kts | 191° |
| 2026-05-04 20:26 | 43.53385 | 15.95584 | 3855 ft | 262 kts | 191° |
| 2026-05-04 20:27 | 43.51581 | 15.95447 | 3441 ft | 261 kts | 169° |
| 2026-05-04 20:27 | 43.50026 | 15.96527 | 3151 ft | 245 kts | 145° |
| 2026-05-04 20:27 | 43.48670 | 15.97963 | 3001 ft | 247 kts | 142° |
| 2026-05-04 20:27 | 43.47305 | 15.99424 | 3010 ft | 249 kts | 142° |
| 2026-05-04 20:28 | 43.45932 | 16.00893 | 3007 ft | 250 kts | 142° |
| 2026-05-04 20:28 | 43.44649 | 16.02522 | 3008 ft | 251 kts | 135° |
| 2026-05-04 20:28 | 43.43601 | 16.04429 | 2942 ft | 251 kts | 112° |
| 2026-05-04 20:28 | 43.43428 | 16.06773 | 2992 ft | 252 kts | 87° |
| 2026-05-04 20:29 | 43.43590 | 16.09187 | 3015 ft | 254 kts | 84° |
| 2026-05-04 20:29 | 43.43839 | 16.11588 | 2774 ft | 252 kts | 75° |
| 2026-05-04 20:29 | 43.44785 | 16.13574 | 2701 ft | 251 kts | 48° |
| 2026-05-04 20:29 | 43.45919 | 16.15394 | 2433 ft | 236 kts | 53° |
| 2026-05-04 20:30 | 43.46807 | 16.17033 | 2136 ft | 208 kts | 55° |
| 2026-05-04 20:30 | 43.47687 | 16.18639 | 1866 ft | 212 kts | 53° |
| 2026-05-04 20:30 | 43.48579 | 16.20240 | 1588 ft | 208 kts | 53° |
| 2026-05-04 20:30 | 43.49381 | 16.21681 | 1324 ft | 176 kts | 52° |
| 2026-05-04 20:31 | 43.50121 | 16.23011 | 1099 ft | 170 kts | 52° |
| 2026-05-04 20:31 | 43.50777 | 16.24192 | 873 ft | 142 kts | 52° |
| 2026-05-04 20:31 | 43.51343 | 16.25214 | 699 ft | 129 kts | 51° |
| 2026-05-04 20:31 | 43.51883 | 16.26185 | 530 ft | 126 kts | 51° |
| 2026-05-04 20:32 | 43.52415 | 16.27131 | 357 ft | 125 kts | 50° |
| 2026-05-04 20:32 | 43.52943 | 16.28072 | 199 ft | 125 kts | 50° |
| 2026-05-04 20:32 | 43.53463 | 16.29006 | 79 ft | 116 kts | 51° |
| 2026-05-04 20:32 | 43.53879 | 16.29766 | 71 ft | 79 kts | 53° |
| 2026-05-04 20:33 | 43.54045 | 16.30087 | 61 ft | 10 kts | 107° |
| 2026-05-04 20:33 | 43.53985 | 16.30091 | 62 ft | 8 kts | 195° |
| 2026-05-04 20:33 | 43.53922 | 16.30065 | 64 ft | 9 kts | 200° |
| 2026-05-04 20:33 | 43.53880 | 16.30012 | 61 ft | 8 kts | 232° |
| 2026-05-04 20:34 | 43.53843 | 16.29947 | 65 ft | 9 kts | 232° |
| 2026-05-04 20:34 | 43.53788 | 16.29848 | 65 ft | 14 kts | 232° |
| 2026-05-04 20:34 | 43.53731 | 16.29743 | 65 ft | 12 kts | 233° |
| 2026-05-04 20:34 | 43.53688 | 16.29665 | 65 ft | 9 kts | 229° |
| 2026-05-04 20:35 | 43.53653 | 16.29599 | 65 ft | 8 kts | 234° |
| 2026-05-04 20:35 | 43.53622 | 16.29542 | 65 ft | 5 kts | 229° |
| 2026-05-04 20:35 | 43.53600 | 16.29536 | 65 ft | 3 kts | 163° |
| 2026-05-04 20:35 | 43.53590 | 16.29564 | 63 ft | 1 kts | 108° |
| 2026-05-04 20:36 | 43.53589 | 16.29566 | 65 ft | 0 kts | 109° |